createdAt,value
2019-06-10T00:01:28.422Z,97474.19
2019-06-10T00:03:55.512Z,97462.14
2019-06-10T00:06:22.326Z,97465.45
2019-06-10T00:08:50.624Z,97457.20
2019-06-10T00:11:17.398Z,97448.47
2019-06-10T00:13:44.072Z,97450.52
2019-06-10T00:16:11.544Z,97446.72
2019-06-10T00:18:43.060Z,97443.84
2019-06-10T00:21:08.233Z,97439.30
2019-06-10T00:23:35.155Z,97451.82
2019-06-10T00:26:04.886Z,97449.17
2019-06-10T00:28:31.140Z,97446.18
2019-06-10T00:30:58.198Z,97440.77
2019-06-10T00:33:26.317Z,97430.56
2019-06-10T00:35:52.878Z,97420.94
2019-06-10T00:38:21.447Z,97421.27
2019-06-10T00:40:47.976Z,97429.05
2019-06-10T00:43:14.539Z,97432.95
2019-06-10T00:45:41.461Z,97431.34
2019-06-10T00:48:21.105Z,97427.21
2019-06-10T00:50:37.362Z,97421.00
2019-06-10T00:53:05.779Z,97409.19
2019-06-10T00:55:32.345Z,97394.38
2019-06-10T00:58:01.470Z,97388.64
2019-06-10T01:00:27.804Z,97378.78
2019-06-10T01:02:54.729Z,97373.94
2019-06-10T01:05:21.507Z,97374.05
2019-06-10T01:07:50.664Z,97379.34
2019-06-10T01:10:16.804Z,97376.12
2019-06-10T01:12:43.600Z,97376.45
2019-06-10T01:15:12.515Z,97369.44
2019-06-10T01:17:38.930Z,97373.66
2019-06-10T01:20:06.186Z,97378.94
2019-06-10T01:22:32.972Z,97374.67
2019-06-10T01:25:01.604Z,97369.73
2019-06-10T01:27:28.070Z,97369.27
2019-06-10T01:29:54.923Z,97361.82
2019-06-10T01:32:21.791Z,97364.44
2019-06-10T01:34:50.748Z,97359.50
2019-06-10T01:37:17.644Z,97354.56
2019-06-10T01:39:44.368Z,97365.34
2019-06-10T01:42:12.826Z,97354.67
2019-06-10T01:44:41.191Z,97355.37
2019-06-10T01:47:08.694Z,97352.38
2019-06-10T01:49:35.453Z,97344.46
2019-06-10T01:52:01.995Z,97350.87
2019-06-10T01:54:28.635Z,97349.25
2019-06-10T01:56:55.324Z,97348.45
2019-06-10T01:59:22.311Z,97354.05
2019-06-10T02:02:04.772Z,97350.49
2019-06-10T02:04:32.243Z,97358.27
2019-06-10T02:07:01.177Z,97350.59
2019-06-10T02:09:27.920Z,97352.53
2019-06-10T02:11:54.721Z,97357.80
2019-06-10T02:14:24.170Z,97358.70
2019-06-10T02:16:50.696Z,97350.45
2019-06-10T02:19:18.627Z,97349.64
2019-06-10T02:21:45.432Z,97343.34
2019-06-10T02:24:14.362Z,97335.98
2019-06-10T02:26:41.066Z,97340.11
2019-06-10T02:29:07.735Z,97335.19
2019-06-10T02:31:37.468Z,97321.20
2019-06-10T02:34:02.945Z,97330.59
2019-06-10T02:36:32.609Z,97320.49
2019-06-10T02:38:58.251Z,97318.31
2019-06-10T02:41:31.928Z,97312.24
2019-06-10T02:43:53.712Z,97311.77
2019-06-10T02:46:28.508Z,97307.45
2019-06-10T02:48:49.001Z,97302.52
2019-06-10T02:51:17.602Z,97302.84
2019-06-10T02:53:44.188Z,97305.36
2019-06-10T02:56:12.701Z,97313.13
2019-06-10T02:58:40.272Z,97319.20
2019-06-10T03:01:08.133Z,97329.72
2019-06-10T03:03:42.512Z,97328.11
2019-06-10T03:06:06.418Z,97334.18
2019-06-10T03:08:35.913Z,97328.45
2019-06-10T03:11:03.728Z,97336.42
2019-06-10T03:13:29.503Z,97335.62
2019-06-10T03:16:05.741Z,97337.33
2019-06-10T03:18:32.949Z,97342.59
2019-06-10T03:21:02.405Z,97345.09
2019-06-10T03:23:28.473Z,97353.05
2019-06-10T03:25:59.781Z,97360.61
2019-06-10T03:28:27.792Z,97359.75
2019-06-10T03:30:58.844Z,97367.77
2019-06-10T03:33:27.720Z,97362.27
2019-06-10T03:35:52.677Z,97356.34
2019-06-10T03:38:20.878Z,97357.63
2019-06-10T03:40:48.663Z,97356.94
2019-06-10T03:43:15.196Z,97358.45
2019-06-10T03:45:42.598Z,97375.99
2019-06-10T03:48:09.299Z,97399.20
2019-06-10T03:50:36.203Z,97412.11
2019-06-10T03:53:04.335Z,97410.73
2019-06-10T03:55:33.102Z,97387.62
2019-06-10T03:58:02.156Z,97385.80
2019-06-10T04:00:28.933Z,97384.33
2019-06-10T04:02:55.667Z,97375.19
2019-06-10T04:05:25.025Z,97369.69
2019-06-10T04:07:52.689Z,97376.14
2019-06-10T04:10:19.607Z,97373.86
2019-06-10T04:12:46.156Z,97377.92
2019-06-10T04:15:12.909Z,97374.04
2019-06-10T04:17:39.580Z,97368.78
2019-06-10T04:20:11.553Z,97362.71
2019-06-10T04:22:34.840Z,97355.27
2019-06-10T04:25:03.032Z,97350.25
2019-06-10T04:27:30.007Z,97358.73
2019-06-10T04:29:56.733Z,97360.11
2019-06-10T04:32:25.720Z,97357.59
2019-06-10T04:34:52.993Z,97341.34
2019-06-10T04:37:20.379Z,97296.64
2019-06-10T04:39:47.376Z,97257.22
2019-06-10T04:42:14.103Z,97229.42
2019-06-10T04:44:42.301Z,97203.28
2019-06-10T04:47:09.364Z,97205.92
2019-06-10T04:49:36.014Z,97206.82
2019-06-10T04:52:03.256Z,97211.41
2019-06-10T04:54:30.134Z,97227.20
2019-06-10T04:56:56.681Z,97259.05
2019-06-10T04:59:25.867Z,97230.28
2019-06-10T05:01:53.019Z,97239.47
2019-06-10T05:04:20.954Z,97290.39
2019-06-10T05:06:48.491Z,97275.23
2019-06-10T05:09:15.200Z,97263.44
2019-06-10T05:11:43.071Z,97273.44
2019-06-10T05:14:09.983Z,97313.52
2019-06-10T05:16:36.791Z,97316.55
2019-06-10T05:19:03.931Z,97311.05
2019-06-10T05:21:33.134Z,97293.00
2019-06-10T05:23:59.320Z,97305.42
2019-06-10T05:26:27.665Z,97289.27
2019-06-10T05:28:54.500Z,97286.91
2019-06-10T05:31:23.231Z,97277.09
2019-06-10T05:33:49.673Z,97265.13
2019-06-10T05:36:16.471Z,97260.23
2019-06-10T05:38:43.771Z,97268.59
2019-06-10T05:41:13.086Z,97286.59
2019-06-10T05:43:39.024Z,97304.00
2019-06-10T05:46:05.745Z,97318.36
2019-06-10T05:48:33.619Z,97328.55
2019-06-10T05:51:03.847Z,97330.86
2019-06-10T05:53:29.429Z,97339.97
2019-06-10T05:55:56.358Z,97331.38
2019-06-10T05:58:23.591Z,97317.06
2019-06-10T06:00:53.158Z,97305.16
2019-06-10T06:03:22.566Z,97305.06
2019-06-10T06:05:48.659Z,97307.70
2019-06-10T06:08:15.324Z,97298.21
2019-06-10T06:10:42.501Z,97292.04
2019-06-10T06:13:09.280Z,97280.13
2019-06-10T06:15:36.095Z,97259.50
2019-06-10T06:18:09.425Z,97273.72
2019-06-10T06:20:33.770Z,97297.11
2019-06-10T06:23:00.011Z,97307.77
2019-06-10T06:25:27.612Z,97297.80
2019-06-10T06:27:55.254Z,97309.05
2019-06-10T06:30:22.680Z,97289.45
2019-06-10T06:32:49.390Z,97287.50
2019-06-10T06:35:16.234Z,97312.13
2019-06-10T06:37:43.021Z,97308.14
2019-06-10T06:40:09.866Z,97309.05
2019-06-10T06:42:37.928Z,97299.55
2019-06-10T06:45:05.861Z,97301.39
2019-06-10T06:47:34.421Z,97294.74
2019-06-10T06:50:02.710Z,97305.31
2019-06-10T06:52:56.700Z,97308.77
2019-06-10T06:54:57.955Z,97310.03
2019-06-10T06:57:24.617Z,97331.38
2019-06-10T06:59:52.625Z,97340.57
2019-06-10T07:02:19.605Z,97362.36
2019-06-10T07:04:46.321Z,97359.73
2019-06-10T07:07:14.258Z,97352.49
2019-06-10T07:09:43.348Z,97352.73
2019-06-10T07:12:10.063Z,97341.95
2019-06-10T07:14:38.922Z,97348.73
2019-06-10T07:17:06.075Z,97338.52
2019-06-10T07:19:35.008Z,97344.16
2019-06-10T07:22:11.424Z,97361.24
2019-06-10T07:24:37.876Z,97387.00
2019-06-10T07:27:08.888Z,97395.16
2019-06-10T07:29:38.503Z,97391.83
2019-06-10T07:32:04.173Z,97375.89
2019-06-10T07:34:33.968Z,97365.92
2019-06-10T07:36:59.144Z,97352.05
2019-06-10T07:39:25.685Z,97328.66
2019-06-10T07:41:53.032Z,97330.27
2019-06-10T07:44:19.786Z,97312.83
2019-06-10T07:46:46.426Z,97309.51
2019-06-10T07:49:13.623Z,97331.20
2019-06-10T07:51:41.978Z,97340.02
2019-06-10T07:54:08.888Z,97349.66
2019-06-10T07:56:40.355Z,97370.77
2019-06-10T07:59:04.118Z,97374.44
2019-06-10T08:01:33.309Z,97381.89
2019-06-10T08:03:59.269Z,97380.69
2019-06-10T08:06:25.834Z,97368.09
2019-06-10T08:08:53.443Z,97385.19
2019-06-10T08:11:22.656Z,97377.50
2019-06-10T08:13:48.897Z,97360.28
2019-06-10T08:16:15.628Z,97374.84
2019-06-10T08:19:14.018Z,97367.27
2019-06-10T08:21:12.206Z,97351.29
2019-06-10T08:23:40.199Z,97367.53
2019-06-10T08:26:07.608Z,97363.98
2019-06-10T08:28:35.438Z,97356.42
2019-06-10T08:31:03.706Z,97343.94
2019-06-10T08:33:32.832Z,97352.43
2019-06-10T08:36:00.623Z,97327.09
2019-06-10T08:38:27.601Z,97317.92
2019-06-10T08:40:54.236Z,97314.03
2019-06-10T08:43:22.669Z,97303.95
2019-06-10T08:45:49.798Z,97299.16
2019-06-10T08:48:16.464Z,97302.03
2019-06-10T08:50:46.625Z,97286.22
2019-06-10T08:53:17.940Z,97287.48
2019-06-10T08:55:46.170Z,97285.66
2019-06-10T08:58:12.911Z,97284.41
2019-06-10T09:00:41.120Z,97279.16
2019-06-10T09:03:09.201Z,97262.64
2019-06-10T09:05:36.085Z,97262.28
2019-06-10T09:08:03.414Z,97263.67
2019-06-10T09:10:30.101Z,97257.13
2019-06-10T09:12:56.661Z,97250.14
2019-06-10T09:15:23.917Z,97244.17
2019-06-10T09:17:52.947Z,97244.48
2019-06-10T09:20:23.003Z,97252.30
2019-06-10T09:23:11.202Z,97251.84
2019-06-10T09:25:18.183Z,97256.66
2019-06-10T09:27:47.951Z,97269.50
2019-06-10T09:30:15.535Z,97291.23
2019-06-10T09:32:46.578Z,97297.66
2019-06-10T09:35:12.773Z,97298.08
2019-06-10T09:37:40.008Z,97301.52
2019-06-10T09:40:09.516Z,97312.09
2019-06-10T09:42:37.288Z,97306.30
2019-06-10T09:45:05.744Z,97323.66
2019-06-10T09:47:34.209Z,97308.23
2019-06-10T09:50:03.181Z,97301.78
2019-06-10T09:52:30.004Z,97307.83
2019-06-10T09:54:57.087Z,97286.31
2019-06-10T09:57:23.953Z,97287.22
2019-06-10T09:59:55.989Z,97295.03
2019-06-10T10:02:19.153Z,97286.17
2019-06-10T10:04:50.577Z,97268.23
2019-06-10T10:07:14.457Z,97269.52
2019-06-10T10:09:46.606Z,97274.34
2019-06-10T10:12:12.223Z,97275.66
2019-06-10T10:14:38.887Z,97278.15
2019-06-10T10:17:05.597Z,97296.84
2019-06-10T10:19:32.107Z,97284.91
2019-06-10T10:21:58.921Z,97278.38
2019-06-10T10:24:25.535Z,97258.22
2019-06-10T10:26:57.164Z,97256.92
2019-06-10T10:29:20.836Z,97251.44
2019-06-10T10:31:50.716Z,97251.96
2019-06-10T10:34:15.915Z,97248.84
2019-06-10T10:36:44.955Z,97249.78
2019-06-10T10:39:13.689Z,97254.54
2019-06-10T10:41:42.183Z,97247.56
2019-06-10T10:44:08.567Z,97237.80
2019-06-10T10:46:35.101Z,97230.67
2019-06-10T10:49:02.651Z,97216.92
2019-06-10T10:51:29.593Z,97211.47
2019-06-10T10:54:18.778Z,97217.63
2019-06-10T10:56:25.328Z,97211.91
2019-06-10T10:58:57.708Z,97217.59
2019-06-10T11:01:23.641Z,97214.47
2019-06-10T11:03:50.093Z,97204.09
2019-06-10T11:06:18.355Z,97198.61
2019-06-10T11:08:47.909Z,97191.31
2019-06-10T11:11:14.085Z,97183.47
2019-06-10T11:13:43.225Z,97181.20
2019-06-10T11:16:09.777Z,97188.72
2019-06-10T11:18:36.605Z,97188.84
2019-06-10T11:21:05.213Z,97174.45
2019-06-10T11:23:34.266Z,97173.00
2019-06-10T11:26:00.480Z,97168.31
2019-06-10T11:28:27.125Z,97152.11
2019-06-10T11:30:56.737Z,97154.09
2019-06-10T11:33:22.907Z,97152.55
2019-06-10T11:35:50.790Z,97149.77
2019-06-10T11:38:18.076Z,97147.80
2019-06-10T11:40:44.651Z,97149.05
2019-06-10T11:43:13.076Z,97141.38
2019-06-10T11:45:45.722Z,97137.28
2019-06-10T11:48:08.355Z,97123.09
2019-06-10T11:50:35.048Z,97129.99
2019-06-10T11:53:04.222Z,97126.08
2019-06-10T11:55:30.247Z,97132.23
2019-06-10T11:57:58.170Z,97140.77
2019-06-10T12:00:25.829Z,97124.31
2019-06-10T12:02:55.068Z,97121.92
2019-06-10T12:05:23.466Z,97122.93
2019-06-10T12:07:51.852Z,97123.77
2019-06-10T12:10:18.623Z,97121.45
2019-06-10T12:12:45.251Z,97121.23
2019-06-10T12:15:12.593Z,97121.83
2019-06-10T12:17:46.957Z,97122.88
2019-06-10T12:20:08.520Z,97120.81
2019-06-10T12:22:35.675Z,97113.88
2019-06-10T12:25:25.022Z,97107.55
2019-06-10T12:27:32.842Z,97106.80
2019-06-10T12:30:00.343Z,97100.44
2019-06-10T12:32:27.919Z,97093.53
2019-06-10T12:34:55.800Z,97093.53
2019-06-10T12:37:23.878Z,97087.56
2019-06-10T12:39:54.391Z,97078.43
2019-06-10T12:42:19.447Z,97066.31
2019-06-10T12:44:46.094Z,97070.90
2019-06-10T12:47:12.881Z,97056.28
2019-06-10T12:49:39.435Z,97050.58
2019-06-10T12:52:07.547Z,97040.47
2019-06-10T12:54:34.599Z,97037.99
2019-06-10T12:57:04.716Z,97036.39
2019-06-10T12:59:32.243Z,97028.86
2019-06-10T13:02:01.934Z,97016.77
2019-06-10T13:04:26.902Z,97024.73
2019-06-10T13:06:55.842Z,97025.75
2019-06-10T13:09:24.431Z,97009.87
2019-06-10T13:11:53.274Z,97004.48
2019-06-10T13:14:21.937Z,97002.89
2019-06-10T13:16:47.961Z,96991.44
2019-06-10T13:19:14.652Z,96979.14
2019-06-10T13:21:42.594Z,96981.87
2019-06-10T13:24:09.444Z,96983.26
2019-06-10T13:26:36.361Z,96972.52
2019-06-10T13:29:08.013Z,96975.28
2019-06-10T13:31:33.689Z,96967.95
2019-06-10T13:34:05.052Z,96983.59
2019-06-10T13:36:29.077Z,96981.00
2019-06-10T13:38:57.390Z,96981.56
2019-06-10T13:41:24.180Z,96974.77
2019-06-10T13:43:52.791Z,96965.41
2019-06-10T13:46:19.386Z,96954.30
2019-06-10T13:48:46.033Z,96956.50
2019-06-10T13:51:15.537Z,96951.98
2019-06-10T13:53:42.589Z,96940.55
2019-06-10T13:56:32.378Z,96930.86
2019-06-10T13:58:38.556Z,96930.67
2019-06-10T14:01:09.448Z,96925.30
2019-06-10T14:03:33.969Z,96919.13
2019-06-10T14:06:10.785Z,96894.47
2019-06-10T14:08:29.406Z,96910.16
2019-06-10T14:10:55.964Z,96908.98
2019-06-10T14:13:23.568Z,96902.41
2019-06-10T14:15:52.994Z,96899.63
2019-06-10T14:18:19.417Z,96884.96
2019-06-10T14:20:46.045Z,96872.06
2019-06-10T14:23:16.847Z,96875.48
2019-06-10T14:25:42.374Z,96862.75
2019-06-10T14:28:11.970Z,96850.87
2019-06-10T14:30:37.737Z,96840.03
2019-06-10T14:33:05.654Z,96837.84
2019-06-10T14:35:33.120Z,96829.51
2019-06-10T14:37:59.921Z,96826.37
2019-06-10T14:40:26.451Z,96802.72
2019-06-10T14:42:53.325Z,96823.63
2019-06-10T14:45:20.057Z,96823.63
2019-06-10T14:47:46.621Z,96833.97
2019-06-10T14:50:16.074Z,96833.38
2019-06-10T14:52:42.818Z,96830.59
2019-06-10T14:55:11.250Z,96847.30
2019-06-10T14:57:38.465Z,96837.75
2019-06-10T15:00:05.724Z,96830.00
2019-06-10T15:02:33.418Z,96828.81
2019-06-10T15:05:02.655Z,96836.56
2019-06-10T15:07:28.613Z,96820.04
2019-06-10T15:09:55.275Z,96820.04
2019-06-10T15:12:22.789Z,96802.94
2019-06-10T15:14:52.011Z,96802.94
2019-06-10T15:17:18.790Z,96803.14
2019-06-10T15:19:45.457Z,96802.14
2019-06-10T15:22:13.718Z,96801.18
2019-06-10T15:24:42.837Z,96783.87
2019-06-10T15:27:15.944Z,96771.76
2019-06-10T15:29:37.588Z,96782.09
2019-06-10T15:32:14.062Z,96809.13
2019-06-10T15:34:32.791Z,96809.13
2019-06-10T15:36:59.330Z,96820.45
2019-06-10T15:39:25.880Z,96828.16
2019-06-10T15:41:52.438Z,96834.34
2019-06-10T15:44:43.053Z,96843.86
2019-06-10T15:46:47.828Z,96852.19
2019-06-10T15:49:17.744Z,96850.17
2019-06-10T15:51:43.526Z,96850.17
2019-06-10T15:54:12.999Z,96858.69
2019-06-10T15:56:48.647Z,96861.84
2019-06-10T15:59:07.775Z,96868.61
2019-06-10T16:01:34.663Z,96870.58
2019-06-10T16:04:01.224Z,96873.88
2019-06-10T16:06:27.778Z,96873.84
2019-06-10T16:08:54.767Z,96880.39
2019-06-10T16:11:25.488Z,96875.81
2019-06-10T16:13:50.118Z,96881.97
2019-06-10T16:16:16.903Z,96878.55
2019-06-10T16:18:43.780Z,96879.10
2019-06-10T16:21:13.343Z,96871.93
2019-06-10T16:23:38.969Z,96867.56
2019-06-10T16:26:05.634Z,96867.95
2019-06-10T16:28:32.834Z,96874.72
2019-06-10T16:31:02.507Z,96881.24
2019-06-10T16:33:28.264Z,96884.23
2019-06-10T16:35:54.825Z,96879.84
2019-06-10T16:38:23.880Z,96866.73
2019-06-10T16:40:53.375Z,96859.55
2019-06-10T16:43:19.644Z,96855.93
2019-06-10T16:45:47.514Z,96863.05
2019-06-10T16:48:14.015Z,96858.24
2019-06-10T16:50:42.637Z,96852.45
2019-06-10T16:53:09.193Z,96861.77
2019-06-10T16:55:35.895Z,96876.97
2019-06-10T16:58:02.895Z,96871.98
2019-06-10T17:00:31.506Z,96860.05
2019-06-10T17:02:58.102Z,96858.22
2019-06-10T17:05:27.020Z,96864.33
2019-06-10T17:07:53.344Z,96888.47
2019-06-10T17:10:20.052Z,96899.95
2019-06-10T17:12:58.185Z,96903.88
2019-06-10T17:15:25.173Z,96909.59
2019-06-10T17:17:52.165Z,96908.71
2019-06-10T17:20:19.001Z,96905.27
2019-06-10T17:22:45.564Z,96918.66
2019-06-10T17:25:13.038Z,96927.55
2019-06-10T17:27:42.127Z,96918.77
2019-06-10T17:30:08.643Z,96911.75
2019-06-10T17:32:35.289Z,96910.33
2019-06-10T17:35:02.412Z,96897.59
2019-06-10T17:37:29.258Z,96882.64
2019-06-10T17:39:55.922Z,96888.13
2019-06-10T17:42:28.330Z,96915.59
2019-06-10T17:44:52.963Z,96945.44
2019-06-10T17:47:19.720Z,96966.01
2019-06-10T17:49:46.279Z,96973.69
2019-06-10T17:52:13.105Z,96982.37
2019-06-10T17:54:39.696Z,97006.12
2019-06-10T17:57:06.667Z,97021.14
2019-06-10T17:59:35.323Z,97009.63
2019-06-10T18:02:02.982Z,97003.08
2019-06-10T18:04:29.813Z,96992.38
2019-06-10T18:06:56.531Z,96968.26
2019-06-10T18:09:24.539Z,96946.45
2019-06-10T18:11:51.630Z,96896.53
2019-06-10T18:14:18.324Z,96820.30
2019-06-10T18:16:44.890Z,96776.30
2019-06-10T18:19:11.792Z,96778.45
2019-06-10T18:21:38.502Z,96793.22
2019-06-10T18:24:08.330Z,96827.84
2019-06-10T18:26:37.280Z,96853.38
2019-06-10T18:29:08.196Z,96874.45
2019-06-10T18:31:33.686Z,96880.80
2019-06-10T18:34:02.359Z,96858.36
2019-06-10T18:36:30.000Z,96847.61
2019-06-10T18:38:57.263Z,96872.17
2019-06-10T18:41:23.915Z,96890.13
2019-06-10T18:43:51.297Z,96879.66
2019-06-10T18:46:18.030Z,96866.07
2019-06-10T18:48:44.593Z,96848.26
2019-06-10T18:51:12.466Z,96838.01
2019-06-10T18:53:39.299Z,96832.84
2019-06-10T18:56:06.097Z,96832.05
2019-06-10T18:58:34.620Z,96836.13
2019-06-10T19:01:07.131Z,96847.31
2019-06-10T19:03:30.517Z,96851.61
2019-06-10T19:05:57.436Z,96853.86
2019-06-10T19:08:24.091Z,96860.33
2019-06-10T19:10:53.348Z,96860.06
2019-06-10T19:13:19.335Z,96846.19
2019-06-10T19:15:45.997Z,96848.08
2019-06-10T19:18:15.387Z,96841.89
2019-06-10T19:20:45.076Z,96844.22
2019-06-10T19:23:09.730Z,96836.00
2019-06-10T19:25:38.474Z,96836.95
2019-06-10T19:28:04.848Z,96831.21
2019-06-10T19:30:34.390Z,96836.11
2019-06-10T19:33:02.212Z,96839.29
2019-06-10T19:35:28.569Z,96842.52
2019-06-10T19:37:55.163Z,96858.13
2019-06-10T19:40:22.753Z,96859.64
2019-06-10T19:42:49.336Z,96866.19
2019-06-10T19:45:16.978Z,96861.41
2019-06-10T19:47:45.712Z,96860.14
2019-06-10T19:50:12.539Z,96859.76
2019-06-10T19:52:39.320Z,96849.53
2019-06-10T19:55:07.162Z,96844.86
2019-06-10T19:57:35.858Z,96845.61
2019-06-10T20:00:10.907Z,96843.21
2019-06-10T20:02:32.991Z,96852.73
2019-06-10T20:05:02.218Z,96857.80
2019-06-10T20:07:29.217Z,96856.20
2019-06-10T20:09:56.478Z,96860.12
2019-06-10T20:12:23.394Z,96860.03
2019-06-10T20:14:50.097Z,96854.56
2019-06-10T20:17:16.903Z,96842.70
2019-06-10T20:19:45.718Z,96834.88
2019-06-10T20:22:12.345Z,96819.20
2019-06-10T20:24:40.447Z,96803.25
2019-06-10T20:27:07.784Z,96792.94
2019-06-10T20:29:35.751Z,96795.61
2019-06-10T20:32:02.597Z,96795.83
2019-06-10T20:34:29.387Z,96811.92
2019-06-10T20:36:57.076Z,96818.83
2019-06-10T20:39:24.879Z,96831.81
2019-06-10T20:41:55.329Z,96841.81
2019-06-10T20:46:52.715Z,96847.33
2019-06-10T20:49:19.104Z,96850.34
2019-06-10T20:51:55.675Z,96840.28
2019-06-10T20:54:14.333Z,96842.59
2019-06-10T20:56:45.185Z,96840.10
2019-06-10T20:59:09.689Z,96833.34
2019-06-10T21:01:36.608Z,96826.72
2019-06-10T21:04:03.974Z,96830.50
2019-06-10T21:06:32.699Z,96824.55
2019-06-10T21:09:02.876Z,96818.36
2019-06-10T21:11:32.097Z,96828.94
2019-06-10T21:13:58.560Z,96839.86
2019-06-10T21:16:25.399Z,96845.95
2019-06-10T21:18:55.534Z,96865.74
2019-06-10T21:21:22.662Z,96859.79
2019-06-10T21:23:49.261Z,96865.77
2019-06-10T21:26:16.735Z,96867.16
2019-06-10T21:28:46.064Z,96868.08
2019-06-10T21:31:12.035Z,96867.86
2019-06-10T21:33:38.717Z,96870.16
2019-06-10T21:36:05.427Z,96860.65
2019-06-10T21:38:32.377Z,96856.64
2019-06-10T21:40:59.038Z,96854.88
2019-06-10T21:43:25.781Z,96858.85
2019-06-10T21:45:57.211Z,96863.20
2019-06-10T21:48:22.999Z,96863.56
2019-06-10T21:50:50.869Z,96871.17
2019-06-10T21:53:18.015Z,96869.92
2019-06-10T21:55:45.197Z,96866.84
2019-06-10T21:58:11.891Z,96866.62
2019-06-10T22:00:55.756Z,96873.27
2019-06-10T22:03:14.246Z,96866.16
2019-06-10T22:05:42.867Z,96868.92
2019-06-10T22:08:12.365Z,96871.34
2019-06-10T22:10:38.867Z,96886.94
2019-06-10T22:13:05.409Z,96884.20
2019-06-10T22:15:33.289Z,96875.59
2019-06-10T22:18:02.189Z,96876.07
2019-06-10T22:20:28.811Z,96863.45
2019-06-10T22:22:56.400Z,96866.44
2019-06-10T22:25:23.003Z,96875.84
2019-06-10T22:27:50.052Z,96881.70
2019-06-10T22:30:17.023Z,96887.45
2019-06-10T22:32:43.711Z,96891.58
2019-06-10T22:35:12.264Z,96884.02
2019-06-10T22:37:38.910Z,96888.27
2019-06-10T22:40:05.684Z,96884.83
2019-06-10T22:42:32.762Z,96879.91
2019-06-10T22:45:00.207Z,96878.88
2019-06-10T22:47:27.048Z,96878.20
2019-06-10T22:49:56.074Z,96866.39
2019-06-10T22:52:23.143Z,96861.69
2019-06-10T22:54:49.853Z,96860.43
2019-06-10T22:57:16.899Z,96852.52
2019-06-10T22:59:43.535Z,96852.52
2019-06-10T23:02:10.116Z,96851.08
2019-06-10T23:04:36.744Z,96847.52
2019-06-10T23:07:03.450Z,96853.72
2019-06-10T23:09:29.988Z,96851.31
2019-06-10T23:11:57.749Z,96846.39
2019-06-10T23:14:25.135Z,96837.23
2019-06-10T23:16:53.990Z,96839.75
2019-06-10T23:19:20.252Z,96834.25
2019-06-10T23:21:47.192Z,96840.67
2019-06-10T23:24:13.715Z,96844.81
2019-06-10T23:26:42.448Z,96848.70
2019-06-10T23:29:08.829Z,96848.83
2019-06-10T23:31:48.737Z,96859.48
2019-06-10T23:34:04.096Z,96849.17
2019-06-10T23:36:32.724Z,96852.73
2019-06-10T23:38:59.329Z,96841.20
2019-06-10T23:41:25.854Z,96837.30
2019-06-10T23:43:53.004Z,96837.65
2019-06-10T23:46:19.718Z,96838.91
2019-06-10T23:48:46.359Z,96842.80
2019-06-10T23:51:13.252Z,96841.43
2019-06-10T23:53:39.881Z,96843.95
2019-06-10T23:56:06.518Z,96845.09
2019-06-10T23:58:33.182Z,96836.05
